createdAt,value
2023-09-04T00:00:16.232Z,61.63
2023-09-04T00:02:49.942Z,61.54
2023-09-04T00:05:21.021Z,61.59
2023-09-04T00:07:51.664Z,61.92
2023-09-04T00:10:22.827Z,61.33
2023-09-04T00:12:53.352Z,61.41
2023-09-04T00:15:23.896Z,61.29
2023-09-04T00:17:54.418Z,61.24
2023-09-04T00:20:25.722Z,61.04
2023-09-04T00:22:56.926Z,61.44
2023-09-04T00:25:27.454Z,61.59
2023-09-04T00:27:59.251Z,61.96
2023-09-04T00:30:29.883Z,61.97
2023-09-04T00:33:00.647Z,62.20
2023-09-04T00:35:31.151Z,62.21
2023-09-04T00:38:01.649Z,62.10
2023-09-04T00:45:16.955Z,61.94
2023-09-04T00:47:48.469Z,62.06
2023-09-04T00:50:22.263Z,62.36
2023-09-04T00:52:55.099Z,62.39
2023-09-04T00:55:26.289Z,62.43
2023-09-04T00:57:57.815Z,62.27
2023-09-04T01:00:29.682Z,62.46
2023-09-04T01:03:04.317Z,62.48
2023-09-04T01:05:35.097Z,62.37
2023-09-04T01:08:06.790Z,62.79
2023-09-04T01:10:41.084Z,62.52
2023-09-04T01:13:19.062Z,62.80
2023-09-04T01:15:49.972Z,62.73
2023-09-04T01:18:21.857Z,62.48
2023-09-04T01:21:04.375Z,62.51
2023-09-04T01:23:36.410Z,62.68
2023-09-04T01:26:14.108Z,62.69
2023-09-04T01:28:56.879Z,62.68
2023-09-04T01:31:31.837Z,62.80
2023-09-04T01:34:09.513Z,62.84
2023-09-04T01:36:41.289Z,62.70
2023-09-04T01:39:12.774Z,62.66
2023-09-04T01:41:43.283Z,62.70
2023-09-04T01:44:14.432Z,62.94
2023-09-04T01:46:45.694Z,63.12
2023-09-04T01:49:16.299Z,63.15
2023-09-04T01:51:46.816Z,63.34
2023-09-04T01:54:17.510Z,63.30
2023-09-04T01:56:47.942Z,63.61
2023-09-04T01:59:18.506Z,63.54
2023-09-04T02:01:49.063Z,63.51
2023-09-04T02:04:19.649Z,63.52
2023-09-04T02:06:50.277Z,63.40
2023-09-04T02:09:20.722Z,63.40
2023-09-04T02:11:51.176Z,63.53
2023-09-04T02:14:22.105Z,63.57
2023-09-04T02:16:52.917Z,63.68
2023-09-04T02:19:23.548Z,63.76
2023-09-04T02:21:54.007Z,63.66
2023-09-04T02:24:24.487Z,63.72
2023-09-04T02:26:55.182Z,63.67
2023-09-04T02:29:25.997Z,63.75
2023-09-04T02:31:58.417Z,63.74
2023-09-04T02:34:28.962Z,63.88
2023-09-04T02:37:00.436Z,63.93
2023-09-04T02:39:31.710Z,64.01
2023-09-04T02:42:02.172Z,64.02
2023-09-04T02:44:32.937Z,64.10
2023-09-04T02:47:03.472Z,64.18
2023-09-04T02:49:34.196Z,64.35
2023-09-04T02:52:04.853Z,64.22
2023-09-04T02:54:35.314Z,64.36
2023-09-04T02:57:06.138Z,64.46
2023-09-04T02:59:38.095Z,64.48
2023-09-04T03:02:08.721Z,64.58
2023-09-04T03:04:39.307Z,64.44
2023-09-04T03:07:10.508Z,64.44
2023-09-04T03:09:41.040Z,64.50
2023-09-04T03:12:11.762Z,64.36
2023-09-04T03:14:42.447Z,64.31
2023-09-04T03:17:12.937Z,64.27
2023-09-04T03:19:43.432Z,64.26
2023-09-04T03:22:13.942Z,64.19
2023-09-04T03:24:44.504Z,64.47
2023-09-04T03:27:15.098Z,64.45
2023-09-04T03:29:46.502Z,64.55
2023-09-04T03:32:17.328Z,64.82
2023-09-04T03:34:48.059Z,64.90
2023-09-04T03:37:18.720Z,64.93
2023-09-04T03:39:49.212Z,64.80
2023-09-04T03:42:20.968Z,64.93
2023-09-04T03:44:52.081Z,64.76
2023-09-04T03:47:22.523Z,64.77
2023-09-04T03:49:53.068Z,64.84
2023-09-04T03:52:23.584Z,64.82
2023-09-04T03:54:54.337Z,64.83
2023-09-04T03:57:24.931Z,64.72
2023-09-04T03:59:58.187Z,64.90
2023-09-04T04:02:28.853Z,65.07
2023-09-04T04:04:59.453Z,65.09
2023-09-04T04:07:29.972Z,65.20
2023-09-04T04:10:00.766Z,65.24
2023-09-04T04:12:32.465Z,65.31
2023-09-04T04:15:07.205Z,65.22
2023-09-04T04:17:38.823Z,65.13
2023-09-04T04:20:12.013Z,65.05
2023-09-04T04:22:43.282Z,64.94
2023-09-04T04:25:13.855Z,64.95
2023-09-04T04:27:45.538Z,64.87
2023-09-04T04:30:14.963Z,64.87
2023-09-04T04:32:45.468Z,64.98
2023-09-04T04:35:16.219Z,65.11
2023-09-04T04:37:46.698Z,65.20
2023-09-04T04:40:23.088Z,65.25
2023-09-04T04:42:53.938Z,65.51
2023-09-04T04:45:24.450Z,65.69
2023-09-04T04:47:55.106Z,65.62
2023-09-04T04:50:27.216Z,65.75
2023-09-04T04:52:57.718Z,65.79
2023-09-04T04:55:28.860Z,65.81
2023-09-04T04:57:59.390Z,65.88
2023-09-04T05:00:29.924Z,65.78
2023-09-04T05:03:00.414Z,65.85
2023-09-04T05:05:31.170Z,65.79
2023-09-04T05:08:02.117Z,65.83
2023-09-04T05:10:32.641Z,65.75
2023-09-04T05:13:03.318Z,65.78
2023-09-04T05:15:33.870Z,65.77
2023-09-04T05:18:05.265Z,65.77
2023-09-04T05:20:40.045Z,65.71
2023-09-04T05:23:10.625Z,65.57
2023-09-04T05:25:48.775Z,65.58
2023-09-04T05:28:19.412Z,65.60
2023-09-04T05:30:50.115Z,65.62
2023-09-04T05:33:20.705Z,65.63
2023-09-04T05:35:58.916Z,65.57
2023-09-04T05:38:29.406Z,65.57
2023-09-04T05:41:00.299Z,65.62
2023-09-04T05:43:30.861Z,65.64
2023-09-04T05:46:01.720Z,65.64
2023-09-04T05:48:32.768Z,65.73
2023-09-04T05:51:04.916Z,65.79
2023-09-04T05:53:35.373Z,65.91
2023-09-04T05:56:12.126Z,65.86
2023-09-04T05:58:48.690Z,65.81
2023-09-04T06:01:20.671Z,65.83
2023-09-04T06:03:51.226Z,66.12
2023-09-04T06:06:22.036Z,65.97
2023-09-04T06:08:52.501Z,65.89
2023-09-04T06:11:22.977Z,66.15
2023-09-04T06:13:53.443Z,66.28
2023-09-04T06:16:23.942Z,66.24
2023-09-04T06:18:54.455Z,65.99
2023-09-04T06:21:25.024Z,65.85
2023-09-04T06:23:55.462Z,65.88
2023-09-04T06:26:25.947Z,66.16
2023-09-04T06:28:56.438Z,65.88
2023-09-04T06:31:26.987Z,65.60
2023-09-04T06:33:57.938Z,65.51
2023-09-04T06:36:28.896Z,65.35
2023-09-04T06:38:59.417Z,65.52
2023-09-04T06:41:29.963Z,65.46
2023-09-04T06:44:00.698Z,65.21
2023-09-04T06:46:31.286Z,65.00
2023-09-04T06:49:01.802Z,64.89
2023-09-04T06:51:33.122Z,64.92
2023-09-04T06:54:04.971Z,64.87
2023-09-04T06:56:35.477Z,64.39
2023-09-04T06:59:06.713Z,64.62
2023-09-04T07:01:37.232Z,64.73
2023-09-04T07:04:08.224Z,64.84
2023-09-04T07:06:39.271Z,64.52
2023-09-04T07:09:09.816Z,64.43
2023-09-04T07:11:40.327Z,64.39
2023-09-04T07:14:10.765Z,64.17
2023-09-04T07:16:47.272Z,63.60
2023-09-04T07:19:21.186Z,63.57
2023-09-04T07:21:51.693Z,63.57
2023-09-04T07:24:22.215Z,63.48
2023-09-04T07:26:52.735Z,63.32
2023-09-04T07:29:23.644Z,63.77
2023-09-04T07:31:55.282Z,63.67
2023-09-04T07:34:26.003Z,63.65
2023-09-04T07:36:56.588Z,63.50
2023-09-04T07:39:27.106Z,63.61
2023-09-04T07:41:59.517Z,63.54
2023-09-04T07:44:30.040Z,63.70
2023-09-04T07:47:00.495Z,63.61
2023-09-04T07:49:31.067Z,63.66
2023-09-04T07:52:01.655Z,63.67
2023-09-04T07:54:32.209Z,63.81
2023-09-04T07:57:05.651Z,63.79
2023-09-04T07:59:36.292Z,63.82
2023-09-04T08:02:07.134Z,63.88
2023-09-04T08:04:37.659Z,64.26
2023-09-04T08:07:08.363Z,64.19
2023-09-04T08:09:38.867Z,63.96
2023-09-04T08:12:10.093Z,63.93
2023-09-04T08:14:40.564Z,63.87
2023-09-04T08:17:11.060Z,63.80
2023-09-04T08:19:41.579Z,63.72
2023-09-04T08:22:12.086Z,63.91
2023-09-04T08:24:42.593Z,63.89
2023-09-04T08:27:13.108Z,63.78
2023-09-04T08:29:43.592Z,63.77
2023-09-04T08:32:14.156Z,63.50
2023-09-04T08:34:44.683Z,63.36
2023-09-04T08:37:15.249Z,63.60
2023-09-04T08:39:45.733Z,63.83
2023-09-04T08:42:16.401Z,63.76
2023-09-04T08:44:49.307Z,63.54
2023-09-04T08:47:23.304Z,63.36
2023-09-04T08:49:54.806Z,63.32
2023-09-04T08:52:25.771Z,63.52
2023-09-04T08:54:57.045Z,63.41
2023-09-04T08:57:29.302Z,63.40
2023-09-04T08:59:59.786Z,63.41
2023-09-04T09:02:31.168Z,63.04
2023-09-04T09:05:02.654Z,63.07
2023-09-04T09:07:33.894Z,63.03
2023-09-04T09:10:08.720Z,63.06
2023-09-04T09:12:39.225Z,63.26
2023-09-04T09:15:11.347Z,62.62
2023-09-04T09:17:54.485Z,62.50
2023-09-04T09:20:35.174Z,62.25
2023-09-04T09:23:07.137Z,61.86
2023-09-04T09:25:39.384Z,61.60
2023-09-04T09:28:11.009Z,61.05
2023-09-04T09:30:42.800Z,61.28
2023-09-04T09:33:14.508Z,61.66
2023-09-04T09:35:44.107Z,61.09
2023-09-04T09:38:14.588Z,60.28
2023-09-04T09:40:47.585Z,60.20
2023-09-04T09:43:19.286Z,60.07
2023-09-04T09:45:51.436Z,59.96
2023-09-04T09:48:25.612Z,59.92
2023-09-04T09:50:56.798Z,60.13
2023-09-04T09:53:27.252Z,59.75
2023-09-04T09:55:58.372Z,59.63
2023-09-04T09:58:29.134Z,59.30
2023-09-04T10:00:59.734Z,58.86
2023-09-04T10:03:30.425Z,58.76
2023-09-04T10:06:05.405Z,59.08
2023-09-04T10:08:39.770Z,58.78
2023-09-04T10:11:13.064Z,58.67
2023-09-04T10:14:04.939Z,58.59
2023-09-04T10:16:42.978Z,58.51
2023-09-04T10:19:19.398Z,58.49
2023-09-04T10:22:00.342Z,58.53
2023-09-04T10:24:43.031Z,58.29
2023-09-04T10:27:16.032Z,58.52
2023-09-04T10:29:56.747Z,58.59
2023-09-04T10:32:29.043Z,58.39
2023-09-04T10:35:00.150Z,58.33
2023-09-04T10:37:33.214Z,58.50
2023-09-04T10:40:04.645Z,58.58
2023-09-04T10:42:36.174Z,58.27
2023-09-04T10:45:16.729Z,58.20
2023-09-04T10:47:51.866Z,58.30
2023-09-04T10:50:35.574Z,58.53
2023-09-04T10:53:08.153Z,58.39
2023-09-04T10:55:40.195Z,57.65
2023-09-04T10:58:12.256Z,57.47
2023-09-04T11:00:44.858Z,57.34
2023-09-04T11:03:23.888Z,56.81
2023-09-04T11:06:21.414Z,56.90
2023-09-04T11:08:55.308Z,56.50
2023-09-04T11:11:28.638Z,55.93
2023-09-04T11:14:04.148Z,56.53
2023-09-04T11:16:40.479Z,56.36
2023-09-04T11:19:17.649Z,55.79
2023-09-04T11:21:48.847Z,55.34
2023-09-04T11:24:21.673Z,54.91
2023-09-04T11:26:52.150Z,54.69
2023-09-04T11:29:22.724Z,54.56
2023-09-04T11:33:21.831Z,54.41
2023-09-04T11:34:47.036Z,54.19
2023-09-04T11:37:17.974Z,54.47
2023-09-04T11:40:02.931Z,54.82
2023-09-04T11:42:36.748Z,54.66
2023-09-04T11:45:09.204Z,54.61
2023-09-04T11:47:41.267Z,54.45
2023-09-04T11:50:18.428Z,54.29
2023-09-04T11:52:49.853Z,55.03
2023-09-04T11:55:23.397Z,55.73
2023-09-04T11:57:53.959Z,55.89
2023-09-04T12:00:24.825Z,55.28
2023-09-04T12:02:55.451Z,54.45
2023-09-04T12:05:27.064Z,54.06
2023-09-04T12:07:57.885Z,54.12
2023-09-04T12:10:28.726Z,54.57
2023-09-04T12:12:59.699Z,54.34
2023-09-04T12:15:31.488Z,53.21
2023-09-04T12:18:03.496Z,52.63
2023-09-04T12:20:37.194Z,52.27
2023-09-04T12:23:08.244Z,52.48
2023-09-04T12:25:41.009Z,52.60
2023-09-04T12:28:12.930Z,52.73
2023-09-04T12:30:45.544Z,53.18
2023-09-04T12:33:18.158Z,53.14
2023-09-04T12:35:57.902Z,52.26
2023-09-04T12:38:28.642Z,52.12
2023-09-04T12:41:00.416Z,52.22
2023-09-04T12:43:31.227Z,51.96
2023-09-04T12:46:02.496Z,51.54
2023-09-04T12:48:33.572Z,51.47
2023-09-04T12:51:04.240Z,50.72
2023-09-04T12:53:35.040Z,50.37
2023-09-04T12:56:05.735Z,50.46
2023-09-04T12:58:37.554Z,50.13
2023-09-04T13:01:08.197Z,50.14
2023-09-04T13:03:38.731Z,49.92
2023-09-04T13:06:09.398Z,49.49
2023-09-04T13:08:39.879Z,49.40
2023-09-04T13:11:10.377Z,49.32
2023-09-04T13:13:42.762Z,49.68
2023-09-04T13:16:13.336Z,49.39
2023-09-04T13:18:43.822Z,49.57
2023-09-04T13:21:14.468Z,49.45
2023-09-04T13:23:45.297Z,49.79
2023-09-04T13:26:15.787Z,49.87
2023-09-04T13:28:46.649Z,49.45
2023-09-04T13:31:20.075Z,48.83
2023-09-04T13:33:50.768Z,48.79
2023-09-04T13:36:21.230Z,49.12
2023-09-04T13:38:51.699Z,49.18
2023-09-04T13:41:22.153Z,49.05
2023-09-04T13:43:56.871Z,48.83
2023-09-04T13:46:27.444Z,48.96
2023-09-04T13:48:58.119Z,48.88
2023-09-04T13:51:28.554Z,48.98
2023-09-04T13:53:59.047Z,48.92
2023-09-04T13:56:29.563Z,48.68
2023-09-04T13:59:00.027Z,48.79
2023-09-04T14:01:30.536Z,48.28
2023-09-04T14:04:01.158Z,48.92
2023-09-04T14:06:31.700Z,49.53
2023-09-04T14:09:02.200Z,48.97
2023-09-04T14:11:32.744Z,48.49
2023-09-04T14:14:03.355Z,48.69
2023-09-04T14:16:33.913Z,48.92
2023-09-04T14:19:04.943Z,48.44
2023-09-04T14:21:35.915Z,48.51
2023-09-04T14:24:07.347Z,48.48
2023-09-04T14:26:37.845Z,48.49
2023-09-04T14:29:08.345Z,48.81
2023-09-04T14:31:38.857Z,48.02
2023-09-04T14:38:23.336Z,48.08
2023-09-04T14:40:55.671Z,48.09
2023-09-04T14:43:26.409Z,48.07
2023-09-04T14:46:09.261Z,47.93
2023-09-04T14:48:40.862Z,48.25
2023-09-04T14:51:11.321Z,47.65
2023-09-04T14:53:42.334Z,47.57
2023-09-04T14:56:12.817Z,47.15
2023-09-04T14:58:43.300Z,47.26
2023-09-04T15:01:18.006Z,47.49
2023-09-04T15:03:50.031Z,47.49
2023-09-04T15:06:20.868Z,47.24
2023-09-04T15:08:51.441Z,47.27
2023-09-04T15:11:21.989Z,47.44
2023-09-04T15:13:52.450Z,47.27
2023-09-04T15:16:23.352Z,47.33
2023-09-04T15:18:53.937Z,47.49
2023-09-04T15:21:24.432Z,47.60
2023-09-04T15:23:54.991Z,47.75
2023-09-04T15:26:25.787Z,47.87
2023-09-04T15:28:56.295Z,47.47
2023-09-04T15:31:29.445Z,47.46
2023-09-04T15:33:59.898Z,47.61
2023-09-04T15:36:30.425Z,47.22
2023-09-04T15:39:00.919Z,47.37
2023-09-04T15:41:31.565Z,47.30
2023-09-04T15:44:02.168Z,47.41
2023-09-04T15:46:33.078Z,47.16
2023-09-04T15:49:04.127Z,47.17
2023-09-04T15:51:34.640Z,47.13
2023-09-04T15:54:05.327Z,47.18
2023-09-04T15:56:35.826Z,47.44
2023-09-04T15:59:06.360Z,47.16
2023-09-04T16:01:36.962Z,47.37
2023-09-04T16:04:08.887Z,47.89
2023-09-04T16:06:39.362Z,47.39
2023-09-04T16:09:09.937Z,47.59
2023-09-04T16:11:40.445Z,47.34
2023-09-04T16:14:10.907Z,47.44
2023-09-04T16:16:41.984Z,46.96
2023-09-04T16:19:13.919Z,46.84
2023-09-04T16:21:44.455Z,46.81
2023-09-04T16:24:15.085Z,46.57
2023-09-04T16:26:45.551Z,46.80
2023-09-04T16:29:17.149Z,46.92
2023-09-04T16:31:46.104Z,47.16
2023-09-04T16:34:17.004Z,47.55
2023-09-04T16:36:47.501Z,47.43
2023-09-04T16:39:18.015Z,47.45
2023-09-04T16:41:48.695Z,47.34
2023-09-04T16:44:19.206Z,47.13
2023-09-04T16:46:50.764Z,47.14
2023-09-04T16:49:21.624Z,47.34
2023-09-04T16:51:56.955Z,47.43
2023-09-04T16:54:28.671Z,48.16
2023-09-04T16:56:59.712Z,48.01
2023-09-04T16:59:30.265Z,48.08
2023-09-04T17:02:00.775Z,48.21
2023-09-04T17:04:31.244Z,48.35
2023-09-04T17:07:01.756Z,48.44
2023-09-04T17:09:32.250Z,48.25
2023-09-04T17:12:02.819Z,48.07
2023-09-04T17:14:33.304Z,48.35
2023-09-04T17:17:03.781Z,48.50
2023-09-04T17:19:34.442Z,48.62
2023-09-04T17:22:05.129Z,48.76
2023-09-04T17:24:35.645Z,48.82
2023-09-04T17:27:08.105Z,48.87
2023-09-04T17:29:38.660Z,49.18
2023-09-04T17:32:09.475Z,49.08
2023-09-04T17:34:41.536Z,49.04
2023-09-04T17:37:12.089Z,49.01
2023-09-04T17:39:42.690Z,48.89
2023-09-04T17:42:15.129Z,48.98
2023-09-04T17:44:45.795Z,49.13
2023-09-04T17:47:16.431Z,49.29
2023-09-04T17:49:46.913Z,49.17
2023-09-04T17:52:17.378Z,49.16
2023-09-04T17:54:47.851Z,49.29
2023-09-04T17:57:18.386Z,49.38
2023-09-04T17:59:49.249Z,49.62
2023-09-04T18:02:20.115Z,49.46
2023-09-04T18:04:50.615Z,49.50
2023-09-04T18:07:21.140Z,49.56
2023-09-04T18:09:51.644Z,49.84
2023-09-04T18:12:22.136Z,50.16
2023-09-04T18:14:52.738Z,50.34
2023-09-04T18:17:23.285Z,50.46
2023-09-04T18:19:53.784Z,50.75
2023-09-04T18:22:24.637Z,50.72
2023-09-04T18:24:55.395Z,50.77
2023-09-04T18:27:26.044Z,50.99
2023-09-04T18:29:56.614Z,51.33
2023-09-04T18:32:27.147Z,51.44
2023-09-04T18:34:57.792Z,51.59
2023-09-04T18:37:28.317Z,51.74
2023-09-04T18:39:58.806Z,51.87
2023-09-04T18:42:29.347Z,51.95
2023-09-04T18:45:00.633Z,52.20
2023-09-04T18:47:56.461Z,52.36
2023-09-04T18:50:26.973Z,52.40
2023-09-04T18:52:58.455Z,52.43
2023-09-04T18:55:28.997Z,52.54
2023-09-04T18:57:59.530Z,52.39
2023-09-04T19:00:30.139Z,52.59
2023-09-04T19:03:00.729Z,52.53
2023-09-04T19:05:31.519Z,52.55
2023-09-04T19:08:02.014Z,52.66
2023-09-04T19:10:32.561Z,52.49
2023-09-04T19:13:03.505Z,52.79
2023-09-04T19:15:34.234Z,53.05
2023-09-04T19:18:04.961Z,52.98
2023-09-04T19:20:35.896Z,53.07
2023-09-04T19:23:06.737Z,53.22
2023-09-04T19:25:37.284Z,53.21
2023-09-04T19:28:08.616Z,53.16
2023-09-04T19:30:39.227Z,53.42
2023-09-04T19:33:09.724Z,53.34
2023-09-04T19:35:40.246Z,53.29
2023-09-04T19:38:10.709Z,53.67
2023-09-04T19:40:41.304Z,53.41
2023-09-04T19:43:11.838Z,53.68
2023-09-04T19:45:42.357Z,53.77
2023-09-04T19:48:12.828Z,53.69
2023-09-04T19:50:43.329Z,53.80
2023-09-04T19:53:13.826Z,53.78
2023-09-04T19:55:44.279Z,53.88
2023-09-04T19:58:14.788Z,53.98
2023-09-04T20:00:45.292Z,53.98
2023-09-04T20:03:15.939Z,54.20
2023-09-04T20:05:46.467Z,54.29
2023-09-04T20:08:16.984Z,54.08
2023-09-04T20:10:47.503Z,54.37
2023-09-04T20:13:18.098Z,54.25
2023-09-04T20:15:48.641Z,54.27
2023-09-04T20:18:19.242Z,54.32
2023-09-04T20:20:49.740Z,54.37
2023-09-04T20:23:20.273Z,54.36
2023-09-04T20:25:50.725Z,54.25
2023-09-04T20:28:21.179Z,54.35
2023-09-04T20:30:54.850Z,54.31
2023-09-04T20:33:26.800Z,54.18
2023-09-04T20:35:57.514Z,54.30
2023-09-04T20:38:28.152Z,54.36
2023-09-04T20:40:58.725Z,54.38
2023-09-04T20:43:29.231Z,54.48
2023-09-04T20:45:59.756Z,54.57
2023-09-04T20:48:30.857Z,54.63
2023-09-04T20:51:01.389Z,54.71
2023-09-04T20:53:31.977Z,54.74
2023-09-04T20:56:04.461Z,54.86
2023-09-04T20:58:35.041Z,54.95
2023-09-04T21:01:05.605Z,55.00
2023-09-04T21:03:36.058Z,54.92
2023-09-04T21:06:07.628Z,55.18
2023-09-04T21:08:37.141Z,55.04
2023-09-04T21:11:08.831Z,55.12
2023-09-04T21:13:57.032Z,55.15
2023-09-04T21:16:45.139Z,55.39
2023-09-04T21:19:33.372Z,55.47
2023-09-04T21:22:21.914Z,55.77
2023-09-04T21:25:09.902Z,55.77
2023-09-04T21:27:57.947Z,55.94
2023-09-04T21:30:46.009Z,56.16
2023-09-04T21:33:34.200Z,56.18
2023-09-04T21:36:22.692Z,56.22
2023-09-04T21:39:10.766Z,56.36
2023-09-04T21:41:59.231Z,56.31
2023-09-04T21:44:47.634Z,56.40
2023-09-04T21:47:35.689Z,56.76
2023-09-04T21:50:24.857Z,56.81
2023-09-04T21:53:13.525Z,57.10
2023-09-04T21:56:05.265Z,57.16
2023-09-04T21:58:53.813Z,57.40
2023-09-04T22:01:41.733Z,57.26
2023-09-04T22:04:29.758Z,57.37
2023-09-04T22:07:17.712Z,57.43
2023-09-04T22:10:06.169Z,57.56
2023-09-04T22:12:53.979Z,57.94
2023-09-04T22:15:42.175Z,58.02
2023-09-04T22:18:41.263Z,58.18
2023-09-04T22:21:29.272Z,58.32
2023-09-04T22:24:17.221Z,58.42
2023-09-04T22:27:05.814Z,58.31
2023-09-04T22:29:54.453Z,58.49
2023-09-04T22:32:42.898Z,58.45
2023-09-04T22:35:30.890Z,58.58
2023-09-04T22:38:19.082Z,58.82
2023-09-04T22:41:07.116Z,58.81
2023-09-04T22:43:54.990Z,58.94
2023-09-04T22:46:43.547Z,59.04
2023-09-04T22:49:32.015Z,58.83
2023-09-04T22:52:19.990Z,58.84
2023-09-04T22:55:08.410Z,58.94
2023-09-04T22:57:57.601Z,59.00
2023-09-04T23:00:46.204Z,58.96
2023-09-04T23:03:35.071Z,59.02
2023-09-04T23:06:23.276Z,59.08
2023-09-04T23:09:11.096Z,59.15
2023-09-04T23:11:59.294Z,59.15
2023-09-04T23:14:47.149Z,59.17
2023-09-04T23:17:35.721Z,59.18
2023-09-04T23:20:26.145Z,59.36
2023-09-04T23:22:56.869Z,59.59
2023-09-04T23:25:30.205Z,59.57
2023-09-04T23:28:05.361Z,59.59
2023-09-04T23:30:38.938Z,59.68
2023-09-04T23:33:20.549Z,59.59
2023-09-04T23:36:16.796Z,59.73
2023-09-04T23:39:09.430Z,59.78
2023-09-04T23:41:57.871Z,59.90
2023-09-04T23:44:45.865Z,59.82
2023-09-04T23:47:17.355Z,60.11
2023-09-04T23:49:47.827Z,60.12
2023-09-04T23:52:19.037Z,60.15
2023-09-04T23:54:50.152Z,60.19
2023-09-04T23:57:20.636Z,60.19
2023-09-04T23:59:51.082Z,60.28
